Time;durP1;ratioP1;P1;durP2;ratioP2;P2;SDS_P1;SDS_P2;PMS_P1;PMS_P2;Temp;Humidity;BMP_temperature;BMP_pressure;BME280_temperature;BME280_humidity;BME280_pressure;Samples;Min_cycle;Max_cycle;Signal;HPM_P1;HPM_P2
2021/12/18 00:00:33;;;;;;;12.52;4.60;;;3.80;83.60;;;;;;5057750;28;20040;-45
2021/12/18 00:02:59;;;;;;;7.07;4.13;;;3.80;83.70;;;;;;5057913;28;20037;-43
2021/12/18 00:05:25;;;;;;;8.02;4.22;;;3.80;83.70;;;;;;5057574;28;20036;-40
2021/12/18 00:07:50;;;;;;;8.65;4.97;;;3.80;83.70;;;;;;5057707;28;20025;-39
2021/12/18 00:10:22;;;;;;;6.32;3.60;;;3.90;83.80;;;;;;5057756;28;20032;-39
2021/12/18 00:12:49;;;;;;;7.65;3.63;;;3.80;83.80;;;;;;5057746;28;20354;-46
2021/12/18 00:15:16;;;;;;;6.32;3.75;;;3.80;83.70;;;;;;5057482;28;20048;-45
2021/12/18 00:17:42;;;;;;;5.82;4.05;;;3.80;83.60;;;;;;5056160;28;20456;-40
2021/12/18 00:20:08;;;;;;;4.43;3.30;;;3.80;83.60;;;;;;5056959;28;20025;-40
2021/12/18 00:22:34;;;;;;;4.95;3.28;;;3.80;83.50;;;;;;5057544;28;20025;-44
2021/12/18 00:24:59;;;;;;;5.82;3.85;;;3.80;83.40;;;;;;5057224;28;20309;-39
2021/12/18 00:27:25;;;;;;;5.47;4.07;;;3.80;83.30;;;;;;5057265;28;20098;-44
2021/12/18 00:29:51;;;;;;;6.95;4.00;;;3.90;83.40;;;;;;5056841;28;20033;-44
2021/12/18 00:32:17;;;;;;;5.13;3.30;;;3.80;83.20;;;;;;5057122;28;20031;-48
2021/12/18 00:34:42;;;;;;;6.03;3.30;;;3.80;83.00;;;;;;5057046;28;20115;-40
2021/12/18 00:37:08;;;;;;;6.75;3.03;;;3.80;83.00;;;;;;5056117;28;20039;-40
2021/12/18 00:39:38;;;;;;;8.85;4.00;;;3.80;83.10;;;;;;5056928;28;20040;-40
2021/12/18 00:42:24;;;;;;;6.43;3.90;;;3.80;83.20;;;;;;5057209;28;20047;-45
2021/12/18 00:44:50;;;;;;;5.65;3.85;;;3.80;83.00;;;;;;5056940;28;20056;-40
2021/12/18 00:47:16;;;;;;;5.93;3.70;;;3.80;83.10;;;;;;5056678;28;20021;-40
2021/12/18 00:49:42;;;;;;;7.40;4.22;;;3.80;83.10;;;;;;5056733;28;20040;-40
2021/12/18 00:52:07;;;;;;;7.55;4.07;;;3.80;83.20;;;;;;5056742;28;20043;-44
2021/12/18 00:54:34;;;;;;;6.03;4.47;;;3.80;83.40;;;;;;5056213;28;20132;-45
2021/12/18 00:57:00;;;;;;;6.55;4.13;;;3.80;83.50;;;;;;5057148;28;20025;-45
2021/12/18 00:59:26;;;;;;;6.78;4.45;;;3.70;83.50;;;;;;5056553;28;20318;-44
2021/12/18 01:01:52;;;;;;;8.50;4.70;;;3.70;83.50;;;;;;5056735;28;20025;-40
2021/12/18 01:04:18;;;;;;;7.72;4.63;;;3.70;83.60;;;;;;5056412;28;20040;-44
2021/12/18 01:06:44;;;;;;;6.00;4.00;;;3.70;83.90;;;;;;5056575;28;20029;-40
2021/12/18 01:09:10;;;;;;;7.10;4.30;;;3.70;84.10;;;;;;5056424;28;20440;-40
2021/12/18 01:11:44;;;;;;;8.65;5.13;;;3.70;84.20;;;;;;5056303;28;20363;-39
2021/12/18 01:24:57;;;;;;;6.78;4.80;;;3.50;84.70;;;;;;5056593;28;20432;-44
2021/12/18 01:27:22;;;;;;;7.10;4.47;;;3.50;84.90;;;;;;5038560;28;20048;-40
2021/12/18 01:29:49;;;;;;;7.53;4.47;;;3.50;85.00;;;;;;5056115;28;20068;-44
2021/12/18 01:32:15;;;;;;;8.35;5.15;;;3.50;85.40;;;;;;5056159;28;20410;-43
2021/12/18 01:34:41;;;;;;;6.88;4.75;;;3.50;85.50;;;;;;5056025;28;20036;-39
2021/12/18 01:37:07;;;;;;;6.53;4.65;;;3.40;85.60;;;;;;5056048;28;20072;-39
2021/12/18 01:39:33;;;;;;;8.15;4.95;;;3.50;85.70;;;;;;5054735;28;20051;-43
2021/12/18 01:42:23;;;;;;;7.75;5.22;;;3.40;85.90;;;;;;5056233;28;20037;-39
2021/12/18 01:53:21;;;;;;;7.93;4.72;;;3.30;86.60;;;;;;5049646;28;20124;-43
2021/12/18 01:55:49;;;;;;;7.00;4.78;;;3.30;86.50;;;;;;5055331;28;20067;-44
2021/12/18 01:58:20;;;;;;;8.43;4.97;;;3.30;86.70;;;;;;5055857;28;20029;-48
2021/12/18 02:00:46;;;;;;;;;;;3.30;86.80;;;;;;5056119;28;20029;-40
2021/12/18 02:03:12;;;;;;;7.22;4.95;;;3.30;86.50;;;;;;5055738;28;20190;-39
2021/12/18 02:05:38;;;;;;;7.13;4.35;;;3.30;86.70;;;;;;5055723;28;20040;-39
2021/12/18 02:08:05;;;;;;;7.03;4.28;;;3.30;86.80;;;;;;5055556;28;20025;-39
2021/12/18 02:10:41;;;;;;;7.05;4.28;;;3.30;86.90;;;;;;5055913;28;20078;-40
2021/12/18 02:13:24;;;;;;;9.80;4.88;;;3.30;87.00;;;;;;5056004;28;20421;-46
2021/12/18 02:21:22;;;;;;;7.55;3.90;;;3.30;87.00;;;;;;5055418;28;20335;-39
2021/12/18 02:23:49;;;;;;;6.18;4.13;;;3.30;87.20;;;;;;5055526;28;20444;-41
2021/12/18 02:26:15;;;;;;;6.55;4.05;;;3.30;87.30;;;;;;5055622;28;20151;-40
2021/12/18 02:28:44;;;;;;;6.78;4.13;;;3.30;87.20;;;;;;5055417;28;20108;-44
2021/12/18 02:31:10;;;;;;;6.35;4.03;;;3.30;87.20;;;;;;5055614;28;20033;-44
2021/12/18 02:33:36;;;;;;;5.00;3.53;;;3.30;87.20;;;;;;5055230;28;20417;-39
2021/12/18 02:36:05;;;;;;;6.43;3.92;;;3.40;87.30;;;;;;5055318;28;20078;-39
2021/12/18 02:41:41;;;;;;;5.43;3.97;;;3.40;87.30;;;;;;5059387;28;20041;-43
2021/12/18 02:44:12;;;;;;;5.07;3.35;;;3.40;87.20;;;;;;5055085;28;20033;-39
2021/12/18 02:46:38;;;;;;;6.85;3.70;;;3.40;87.00;;;;;;5055128;28;20108;-40
2021/12/18 02:49:10;;;;;;;5.43;3.50;;;3.40;86.90;;;;;;5055358;28;20037;-47
2021/12/18 02:51:35;;;;;;;7.20;3.47;;;3.40;86.90;;;;;;5055322;28;20356;-39
2021/12/18 02:54:01;;;;;;;4.53;3.20;;;3.40;86.90;;;;;;5054837;28;20275;-44
2021/12/18 02:56:27;;;;;;;6.00;3.60;;;3.40;86.70;;;;;;5055473;28;20112;-44
2021/12/18 02:58:58;;;;;;;5.75;3.80;;;3.40;86.60;;;;;;5055035;28;20111;-39
2021/12/18 03:01:25;;;;;;;4.55;3.22;;;3.40;86.70;;;;;;5058229;28;20028;-45
2021/12/18 03:03:52;;;;;;;4.13;3.42;;;3.30;86.50;;;;;;5058490;28;20317;-44
2021/12/18 03:06:29;;;;;;;5.18;3.83;;;3.30;86.60;;;;;;5058965;28;20337;-40
2021/12/18 03:27:26;;;;;;;5.28;3.88;;;3.30;86.90;;;;;;5058123;28;20021;-45
2021/12/18 03:29:51;;;;;;;4.40;3.35;;;3.30;86.90;;;;;;5058227;28;20033;-44
2021/12/18 03:32:18;;;;;;;5.65;3.50;;;3.30;86.80;;;;;;5058341;28;20025;-45
2021/12/18 03:34:44;;;;;;;4.85;3.47;;;3.30;86.70;;;;;;5058220;28;20166;-39
2021/12/18 03:37:10;;;;;;;5.28;3.58;;;3.30;86.70;;;;;;5058435;28;20147;-40
2021/12/18 03:39:36;;;;;;;6.18;3.60;;;3.30;86.60;;;;;;5057816;28;20064;-39
2021/12/18 03:42:04;;;;;;;6.55;3.65;;;3.30;86.50;;;;;;5057878;28;20024;-44
2021/12/18 03:44:30;;;;;;;7.32;3.58;;;3.30;86.40;;;;;;5058017;28;20029;-44
2021/12/18 03:46:56;;;;;;;5.82;3.88;;;3.30;86.40;;;;;;5058091;28;20021;-47
2021/12/18 03:49:22;;;;;;;4.95;3.40;;;3.30;86.40;;;;;;5057983;28;20087;-39
2021/12/18 03:51:47;;;;;;;4.18;2.80;;;3.30;86.40;;;;;;5057866;28;20316;-45
2021/12/18 03:54:13;;;;;;;5.18;3.30;;;3.30;86.40;;;;;;5057583;28;20175;-39
2021/12/18 03:56:39;;;;;;;6.18;3.50;;;3.30;86.30;;;;;;5057755;28;20352;-45
2021/12/18 03:59:04;;;;;;;6.97;3.45;;;3.30;86.30;;;;;;5057725;28;20109;-41
2021/12/18 04:01:30;;;;;;;4.60;3.65;;;3.30;85.90;;;;;;5057578;28;20426;-45
2021/12/18 04:03:56;;;;;;;8.60;3.88;;;3.30;85.90;;;;;;5057471;28;20294;-39
2021/12/18 04:06:22;;;;;;;4.90;3.15;;;3.30;86.10;;;;;;5057493;28;20025;-40
2021/12/18 04:08:47;;;;;;;5.97;3.50;;;3.30;86.20;;;;;;5057497;28;20033;-39
2021/12/18 04:11:13;;;;;;;4.75;3.20;;;3.30;86.00;;;;;;5057594;28;20025;-40
2021/12/18 04:13:44;;;;;;;5.35;3.55;;;3.30;85.80;;;;;;5057187;28;20040;-39
2021/12/18 04:16:10;;;;;;;5.32;3.00;;;3.30;85.70;;;;;;5057705;28;20053;-48
2021/12/18 04:18:35;;;;;;;4.30;3.10;;;3.30;85.70;;;;;;5057214;28;20433;-43
2021/12/18 04:21:01;;;;;;;5.40;3.30;;;3.30;85.80;;;;;;5057149;28;20040;-44
2021/12/18 04:23:27;;;;;;;5.35;3.33;;;3.30;85.80;;;;;;5057376;28;20024;-39
2021/12/18 04:25:55;;;;;;;5.82;3.22;;;3.30;85.90;;;;;;5057348;28;20021;-40
2021/12/18 04:28:21;;;;;;;5.07;3.20;;;3.30;86.00;;;;;;5057127;28;20029;-40
2021/12/18 04:30:47;;;;;;;5.03;3.10;;;3.30;85.70;;;;;;5056921;28;20109;-46
2021/12/18 04:33:12;;;;;;;4.55;3.33;;;3.30;85.60;;;;;;5057442;28;20033;-40
2021/12/18 04:35:38;;;;;;;3.40;2.63;;;3.30;85.50;;;;;;5057132;28;20064;-44
2021/12/18 04:38:04;;;;;;;5.05;3.20;;;3.30;85.50;;;;;;5057365;28;20036;-39
2021/12/18 04:40:29;;;;;;;4.25;2.72;;;3.30;85.50;;;;;;5057038;28;20366;-46
2021/12/18 04:42:56;;;;;;;4.35;2.80;;;3.30;85.40;;;;;;5056794;28;20025;-39
2021/12/18 04:45:21;;;;;;;5.55;3.50;;;3.30;85.20;;;;;;5057039;28;20059;-44
2021/12/18 04:47:47;;;;;;;15.55;7.55;;;3.30;85.20;;;;;;5056808;28;20441;-45
2021/12/18 04:50:13;;;;;;;5.32;3.38;;;3.30;85.10;;;;;;5056900;28;20036;-44
2021/12/18 04:52:39;;;;;;;5.43;3.58;;;3.30;85.00;;;;;;5057000;28;20414;-43
2021/12/18 04:55:05;;;;;;;4.53;3.08;;;3.20;85.10;;;;;;5056183;28;20496;-45
2021/12/18 04:57:31;;;;;;;4.55;3.13;;;3.20;85.00;;;;;;5056780;28;20033;-40
2021/12/18 04:59:57;;;;;;;4.20;3.08;;;3.20;85.10;;;;;;5056581;28;20457;-48
2021/12/18 05:02:33;;;;;;;4.60;2.75;;;3.30;85.20;;;;;;5056774;28;20321;-40
2021/12/18 05:04:59;;;;;;;8.02;3.42;;;3.20;85.10;;;;;;5056257;28;20044;-44
2021/12/18 05:07:25;;;;;;;4.88;3.17;;;3.20;85.00;;;;;;5056054;28;20036;-45
2021/12/18 05:09:51;;;;;;;6.93;2.60;;;3.20;84.90;;;;;;5056374;28;20043;-45
2021/12/18 05:12:16;;;;;;;4.22;2.60;;;3.20;84.90;;;;;;5056562;28;20096;-40
2021/12/18 05:14:42;;;;;;;4.05;2.75;;;3.20;84.90;;;;;;5056370;28;20086;-46
2021/12/18 05:17:08;;;;;;;3.65;2.75;;;3.20;85.00;;;;;;5056585;28;20094;-43
2021/12/18 05:19:33;;;;;;;3.42;2.60;;;3.20;85.10;;;;;;5056117;28;20033;-44
2021/12/18 05:21:59;;;;;;;3.88;2.60;;;3.10;85.30;;;;;;5056135;28;20498;-40
2021/12/18 05:24:25;;;;;;;3.83;2.65;;;3.10;85.40;;;;;;5055726;28;20108;-39
2021/12/18 05:26:50;;;;;;;4.72;2.70;;;3.10;85.60;;;;;;5056229;28;20028;-45
2021/12/18 05:29:16;;;;;;;3.63;2.58;;;3.00;85.80;;;;;;5055859;28;20064;-39
2021/12/18 05:31:43;;;;;;;4.82;2.70;;;3.00;85.80;;;;;;5056176;28;20028;-40
2021/12/18 05:34:09;;;;;;;5.82;2.70;;;3.00;85.90;;;;;;5056070;28;20091;-40
2021/12/18 05:37:12;;;;;;;4.63;2.40;;;3.00;86.00;;;;;;5056278;28;20025;-41
2021/12/18 05:39:29;;;;;;;3.85;2.65;;;3.00;86.00;;;;;;5055558;28;20061;-44
2021/12/18 05:41:56;;;;;;;2.75;2.25;;;3.00;86.00;;;;;;5056153;28;20025;-39
2021/12/18 05:44:24;;;;;;;5.03;2.22;;;3.00;85.90;;;;;;5055806;28;20029;-40
2021/12/18 05:46:50;;;;;;;3.95;2.10;;;3.00;86.00;;;;;;5055569;28;20127;-43
2021/12/18 05:49:16;;;;;;;3.70;2.00;;;3.00;85.90;;;;;;5055600;28;20025;-43
2021/12/18 05:51:43;;;;;;;3.88;2.30;;;3.00;85.40;;;;;;5055673;28;20029;-40
2021/12/18 05:54:09;;;;;;;3.17;2.25;;;3.00;85.20;;;;;;5055304;28;20061;-40
2021/12/18 05:56:35;;;;;;;2.95;2.35;;;3.00;84.90;;;;;;5055743;28;20024;-45
2021/12/18 05:59:01;;;;;;;2.80;1.90;;;3.00;85.10;;;;;;5055601;28;20321;-44
2021/12/18 06:01:27;;;;;;;3.17;2.17;;;3.00;84.70;;;;;;5055767;28;20029;-44
2021/12/18 06:03:53;;;;;;;2.72;2.10;;;3.00;84.70;;;;;;5055642;28;20378;-46
2021/12/18 06:06:21;;;;;;;3.63;2.35;;;3.00;84.60;;;;;;5055477;28;20100;-44
2021/12/18 06:08:47;;;;;;;4.43;2.25;;;3.00;84.50;;;;;;5055483;28;20056;-40
2021/12/18 06:11:17;;;;;;;3.17;2.50;;;3.00;84.60;;;;;;5055496;28;20596;-43
2021/12/18 06:13:45;;;;;;;3.83;2.60;;;3.10;84.70;;;;;;5055599;28;20051;-40
2021/12/18 06:16:11;;;;;;;3.13;2.20;;;3.10;84.40;;;;;;5055711;28;20025;-40
2021/12/18 06:18:40;;;;;;;4.03;2.65;;;3.10;84.30;;;;;;5055426;28;20021;-39
2021/12/18 06:21:07;;;;;;;3.90;2.55;;;3.10;84.40;;;;;;5055572;28;20052;-39
2021/12/18 06:23:33;;;;;;;5.80;2.65;;;3.10;84.60;;;;;;5055291;28;20118;-41
2021/12/18 06:25:59;;;;;;;3.92;2.28;;;3.10;84.40;;;;;;5055431;28;20028;-44
2021/12/18 06:28:25;;;;;;;2.72;2.08;;;3.20;84.50;;;;;;5055652;28;20021;-39
2021/12/18 06:30:51;;;;;;;3.45;2.15;;;3.20;84.50;;;;;;5055358;28;20032;-46
2021/12/18 06:33:17;;;;;;;3.50;2.20;;;3.20;84.30;;;;;;5055724;28;20037;-47
2021/12/18 06:35:43;;;;;;;4.22;2.60;;;3.20;84.10;;;;;;5057732;28;20061;-39
2021/12/18 06:38:09;;;;;;;3.10;2.42;;;3.20;83.90;;;;;;5059220;28;20122;-44
2021/12/18 06:40:35;;;;;;;2.95;2.30;;;3.20;83.70;;;;;;5059239;28;20052;-39
2021/12/18 06:43:00;;;;;;;2.67;2.20;;;3.20;83.80;;;;;;5059290;28;20150;-40
2021/12/18 06:45:26;;;;;;;3.17;2.20;;;3.20;83.80;;;;;;5058875;28;20033;-45
2021/12/18 06:47:53;;;;;;;3.63;2.35;;;3.20;83.50;;;;;;5059156;28;20078;-40
2021/12/18 06:50:19;;;;;;;3.35;2.30;;;3.20;83.40;;;;;;5059010;28;20037;-39
2021/12/18 06:52:46;;;;;;;4.15;2.80;;;3.20;83.50;;;;;;5058973;28;20091;-44
2021/12/18 06:55:12;;;;;;;3.47;2.50;;;3.20;83.40;;;;;;5058151;28;20048;-39
2021/12/18 06:57:38;;;;;;;2.72;2.15;;;3.20;83.30;;;;;;5058573;28;20035;-39
2021/12/18 07:00:07;;;;;;;4.50;2.28;;;3.20;83.20;;;;;;5058439;28;20398;-44
2021/12/18 07:02:32;;;;;;;3.45;2.30;;;3.20;83.20;;;;;;5058770;28;20017;-45
2021/12/18 07:04:58;;;;;;;4.43;2.42;;;3.20;82.90;;;;;;5058644;28;20128;-44
2021/12/18 07:07:24;;;;;;;3.53;2.55;;;3.20;82.70;;;;;;5058561;28;20049;-44
2021/12/18 07:09:49;;;;;;;2.97;2.05;;;3.20;82.80;;;;;;5058405;28;20127;-45
2021/12/18 07:12:15;;;;;;;3.05;2.17;;;3.20;82.60;;;;;;5058823;28;20025;-44
2021/12/18 07:14:41;;;;;;;3.22;2.28;;;3.20;82.70;;;;;;5058239;28;20424;-46
2021/12/18 07:17:06;;;;;;;4.72;2.40;;;3.20;82.80;;;;;;5058366;28;20029;-40
2021/12/18 07:19:32;;;;;;;3.30;2.10;;;3.20;82.60;;;;;;5058212;28;20037;-39
2021/12/18 07:21:58;;;;;;;3.45;2.63;;;3.20;82.60;;;;;;5056056;28;20647;-40
2021/12/18 07:24:24;;;;;;;3.25;2.30;;;3.20;82.70;;;;;;5058070;28;20126;-39
2021/12/18 07:26:49;;;;;;;3.25;2.30;;;3.30;82.50;;;;;;5057988;28;20032;-40
2021/12/18 07:29:15;;;;;;;4.38;3.10;;;3.30;82.10;;;;;;5057984;28;20087;-47
2021/12/18 07:31:41;;;;;;;3.38;2.53;;;3.30;82.30;;;;;;5058010;28;20029;-39
2021/12/18 07:34:06;;;;;;;3.92;2.60;;;3.30;82.30;;;;;;5057800;28;20033;-39
2021/12/18 07:36:32;;;;;;;2.83;2.35;;;3.30;82.10;;;;;;5057847;28;20060;-44
2021/12/18 07:38:57;;;;;;;4.40;2.97;;;3.40;81.80;;;;;;5057628;28;20471;-45
2021/12/18 07:41:23;;;;;;;3.25;2.22;;;3.40;81.90;;;;;;5057641;28;20032;-41
2021/12/18 07:43:49;;;;;;;3.95;2.75;;;3.40;82.00;;;;;;5057476;28;20029;-39
2021/12/18 07:46:15;;;;;;;3.40;2.38;;;3.40;82.00;;;;;;5057307;28;20036;-39
2021/12/18 07:48:41;;;;;;;4.93;3.10;;;3.50;82.00;;;;;;5057167;28;20033;-41
2021/12/18 07:51:06;;;;;;;7.15;4.57;;;3.50;81.60;;;;;;5057747;28;20083;-39
2021/12/18 07:53:32;;;;;;;7.38;5.45;;;3.50;81.40;;;;;;5057327;28;20024;-48
2021/12/18 07:55:58;;;;;;;5.68;4.20;;;3.50;80.90;;;;;;5057439;28;20111;-39
2021/12/18 07:58:24;;;;;;;4.32;3.00;;;3.50;80.80;;;;;;5057525;28;20036;-46
2021/12/18 08:00:50;;;;;;;5.20;3.55;;;3.60;80.70;;;;;;5057243;28;20025;-39
2021/12/18 08:03:16;;;;;;;4.28;2.38;;;3.60;80.60;;;;;;5057054;28;20456;-41
2021/12/18 08:05:42;;;;;;;2.88;2.03;;;3.60;80.60;;;;;;5057273;28;20044;-45
2021/12/18 08:08:07;;;;;;;3.55;2.53;;;3.60;79.80;;;;;;5057359;28;20029;-42
2021/12/18 08:10:34;;;;;;;3.15;2.28;;;3.60;79.70;;;;;;5057269;28;20029;-39
2021/12/18 08:12:59;;;;;;;2.40;1.90;;;3.60;79.80;;;;;;5057404;28;20112;-39
2021/12/18 08:15:25;;;;;;;2.90;2.30;;;3.60;79.80;;;;;;5057290;28;20029;-45
2021/12/18 08:17:50;;;;;;;3.50;2.35;;;3.60;80.00;;;;;;5056787;28;20356;-46
2021/12/18 08:20:16;;;;;;;3.60;2.03;;;3.70;79.90;;;;;;5057350;28;20087;-45
2021/12/18 08:22:42;;;;;;;2.88;2.20;;;3.70;79.80;;;;;;5057269;28;20029;-45
2021/12/18 08:25:08;;;;;;;2.10;1.90;;;3.70;79.40;;;;;;5057175;28;20413;-45
2021/12/18 08:27:34;;;;;;;2.10;1.85;;;3.70;78.90;;;;;;5057018;28;20025;-47
2021/12/18 08:30:00;;;;;;;3.13;2.10;;;3.70;78.90;;;;;;5056892;28;20033;-39
2021/12/18 08:32:26;;;;;;;2.70;2.00;;;3.70;79.20;;;;;;5057164;28;20454;-39
2021/12/18 08:34:52;;;;;;;3.53;2.53;;;3.70;79.00;;;;;;5056147;28;20037;-48
2021/12/18 08:37:20;;;;;;;3.63;2.60;;;3.70;78.80;;;;;;5057132;28;20356;-40
2021/12/18 08:39:46;;;;;;;4.43;2.78;;;3.70;78.70;;;;;;5056804;28;20110;-39
2021/12/18 08:42:13;;;;;;;4.75;3.05;;;3.80;78.50;;;;;;5057132;28;20033;-40
2021/12/18 08:44:38;;;;;;;2.65;1.73;;;3.70;78.40;;;;;;5056575;28;20041;-47
2021/12/18 08:47:04;;;;;;;2.67;2.17;;;3.70;78.00;;;;;;5056433;28;20029;-40
2021/12/18 08:49:30;;;;;;;2.70;1.90;;;3.70;77.90;;;;;;5056350;28;20044;-44
2021/12/18 08:51:56;;;;;;;6.45;2.38;;;3.70;77.80;;;;;;5056969;28;20025;-40
2021/12/18 08:54:23;;;;;;;2.35;1.92;;;3.70;77.90;;;;;;5056177;28;20135;-39
2021/12/18 08:56:50;;;;;;;2.75;1.92;;;3.70;77.70;;;;;;5056347;28;20049;-48
2021/12/18 08:59:15;;;;;;;2.45;1.90;;;3.70;77.80;;;;;;5055984;28;20064;-45
2021/12/18 09:01:41;;;;;;;3.22;2.30;;;3.70;77.90;;;;;;5056383;28;20425;-39
2021/12/18 09:04:07;;;;;;;2.10;1.60;;;3.60;77.70;;;;;;5056537;28;20319;-44
2021/12/18 09:06:33;;;;;;;6.50;3.63;;;3.70;77.80;;;;;;5055943;28;20096;-39
2021/12/18 09:08:59;;;;;;;4.38;2.85;;;3.70;77.60;;;;;;5056034;28;20033;-47
2021/12/18 09:11:25;;;;;;;2.63;2.00;;;3.60;76.90;;;;;;5056515;28;20052;-45
2021/12/18 09:13:51;;;;;;;2.60;2.00;;;3.70;77.00;;;;;;5055969;28;20032;-44
2021/12/18 09:16:16;;;;;;;2.45;1.58;;;3.60;76.90;;;;;;5056109;28;20425;-40
2021/12/18 09:18:42;;;;;;;4.20;2.00;;;3.60;76.80;;;;;;5056028;28;20021;-45
2021/12/18 09:21:08;;;;;;;2.58;1.50;;;3.60;76.90;;;;;;5055953;28;20456;-39
2021/12/18 09:23:34;;;;;;;3.00;2.08;;;3.60;76.90;;;;;;5056091;28;20106;-43
2021/12/18 09:26:00;;;;;;;3.10;2.10;;;3.60;77.00;;;;;;5056022;28;20029;-44
2021/12/18 09:28:26;;;;;;;2.97;1.88;;;3.60;77.00;;;;;;5055382;28;20029;-45
2021/12/18 09:30:52;;;;;;;2.30;2.05;;;3.60;77.20;;;;;;5055902;28;20060;-39
2021/12/18 09:33:18;;;;;;;2.65;1.80;;;3.70;77.20;;;;;;5055880;28;20032;-41
2021/12/18 09:35:44;;;;;;;3.85;1.70;;;3.60;76.70;;;;;;5055796;28;20067;-45
2021/12/18 09:38:10;;;;;;;2.40;1.58;;;3.60;76.40;;;;;;5055763;28;20076;-45
2021/12/18 09:40:36;;;;;;;2.50;1.90;;;3.60;76.40;;;;;;5055839;28;20110;-39
2021/12/18 09:43:03;;;;;;;2.75;1.75;;;3.60;76.50;;;;;;5055515;28;20036;-40
2021/12/18 09:45:29;;;;;;;2.00;1.55;;;3.60;76.50;;;;;;5055805;28;20049;-47
2021/12/18 09:47:54;;;;;;;2.63;2.03;;;3.60;76.00;;;;;;5055495;28;20032;-44
2021/12/18 09:50:23;;;;;;;2.25;1.70;;;3.50;76.00;;;;;;5055698;28;20033;-44
2021/12/18 09:52:49;;;;;;;2.33;1.77;;;3.50;76.00;;;;;;5052464;28;20069;-39
2021/12/18 09:55:15;;;;;;;1.90;1.60;;;3.50;76.20;;;;;;5054890;28;20049;-39
2021/12/18 09:57:41;;;;;;;1.42;1.33;;;3.40;76.30;;;;;;5055683;28;20479;-44
2021/12/18 10:00:19;;;;;;;2.25;1.60;;;3.40;76.30;;;;;;5055605;28;20032;-45
2021/12/18 10:02:45;;;;;;;2.15;1.50;;;3.40;76.60;;;;;;5055553;28;20366;-44
2021/12/18 10:05:22;;;;;;;2.88;1.90;;;3.40;76.60;;;;;;5055515;28;20119;-41
2021/12/18 10:08:07;;;;;;;2.58;1.55;;;3.40;76.40;;;;;;5055434;28;20368;-39
2021/12/18 10:10:34;;;;;;;2.92;1.80;;;3.40;76.50;;;;;;5059233;28;20112;-40
2021/12/18 10:13:09;;;;;;;4.78;2.00;;;3.40;76.40;;;;;;5058988;28;20032;-45
2021/12/18 10:15:36;;;;;;;1.90;1.40;;;3.50;76.30;;;;;;5059421;28;20036;-39
2021/12/18 10:18:11;;;;;;;3.28;1.90;;;3.40;75.80;;;;;;5059405;28;20037;-39
2021/12/18 10:20:38;;;;;;;1.90;1.60;;;3.50;75.70;;;;;;5059369;28;20056;-39
2021/12/18 10:23:05;;;;;;;3.13;1.55;;;3.50;75.30;;;;;;5059402;28;20025;-44
2021/12/18 10:25:40;;;;;;;2.13;1.55;;;3.50;75.30;;;;;;5059048;28;20078;-39
2021/12/18 10:28:21;;;;;;;6.05;2.30;;;3.50;75.30;;;;;;5059028;28;20366;-46
2021/12/18 10:30:56;;;;;;;3.45;2.00;;;3.50;75.40;;;;;;5058438;28;20037;-47
2021/12/18 10:33:29;;;;;;;6.53;2.53;;;3.50;75.00;;;;;;5059244;28;20098;-48
2021/12/18 10:35:57;;;;;;;1.45;1.13;;;3.50;74.80;;;;;;5059321;28;20048;-44
2021/12/18 10:38:48;;;;;;;1.30;1.10;;;3.50;74.40;;;;;;5058782;28;20033;-44
2021/12/18 10:41:28;;;;;;;3.22;2.00;;;3.50;74.00;;;;;;5058704;28;20385;-44
2021/12/18 10:44:09;;;;;;;2.25;1.42;;;3.50;73.40;;;;;;5058752;28;20091;-45
2021/12/18 10:46:37;;;;;;;6.30;2.95;;;3.50;73.20;;;;;;5058546;28;20032;-45
2021/12/18 10:49:09;;;;;;;2.42;1.88;;;3.50;73.20;;;;;;5058477;28;20017;-45
2021/12/18 10:51:36;;;;;;;2.47;1.73;;;3.50;73.20;;;;;;5059328;28;20113;-39
2021/12/18 10:54:12;;;;;;;2.13;1.20;;;3.50;73.00;;;;;;5057559;28;20045;-44
2021/12/18 10:56:52;;;;;;;2.38;1.60;;;3.50;72.50;;;;;;5059043;28;20087;-47
2021/12/18 10:59:24;;;;;;;2.92;1.40;;;3.50;72.50;;;;;;5058241;28;20079;-44
2021/12/18 11:01:55;;;;;;;2.78;1.65;;;3.50;72.40;;;;;;5058616;28;20373;-39
2021/12/18 11:04:29;;;;;;;2.95;1.60;;;3.50;72.30;;;;;;5058623;28;20052;-39
2021/12/18 11:06:56;;;;;;;3.33;1.67;;;3.40;72.00;;;;;;5058203;28;20029;-40
2021/12/18 11:09:32;;;;;;;2.15;1.42;;;3.40;72.10;;;;;;5058127;28;20405;-44
2021/12/18 11:14:36;;;;;;;3.72;1.95;;;3.40;72.20;;;;;;5058395;28;20321;-45
2021/12/18 11:17:05;;;;;;;5.95;3.17;;;3.40;72.40;;;;;;5058695;28;20103;-44
2021/12/18 11:19:32;;;;;;;2.72;1.52;;;3.40;72.20;;;;;;5057843;28;20033;-39
2021/12/18 11:21:59;;;;;;;4.50;2.67;;;3.40;71.70;;;;;;5057336;28;20270;-39
2021/12/18 11:24:40;;;;;;;4.53;2.03;;;3.40;72.00;;;;;;5057913;28;20419;-45
2021/12/18 11:27:19;;;;;;;3.25;2.20;;;3.40;72.10;;;;;;5057710;28;20467;-43
2021/12/18 11:30:01;;;;;;;2.72;1.88;;;3.40;72.00;;;;;;5057613;28;20119;-39
2021/12/18 11:32:31;;;;;;;1.92;1.45;;;3.40;71.80;;;;;;5055551;28;20041;-39
2021/12/18 11:35:04;;;;;;;2.28;1.45;;;3.30;71.60;;;;;;5057895;28;20033;-44
2021/12/18 11:37:40;;;;;;;4.90;2.67;;;3.30;71.60;;;;;;5057668;28;20040;-45
2021/12/18 11:40:07;;;;;;;4.25;2.47;;;3.20;71.40;;;;;;5057890;28;20137;-39
2021/12/18 11:42:34;;;;;;;2.30;1.48;;;3.20;71.60;;;;;;5057943;28;20432;-44
2021/12/18 11:45:02;;;;;;;3.75;2.40;;;3.20;71.40;;;;;;5057731;28;20053;-40
2021/12/18 11:47:37;;;;;;;5.78;2.95;;;3.20;71.50;;;;;;5057204;28;20069;-39
2021/12/18 11:50:06;;;;;;;5.90;3.05;;;3.10;71.40;;;;;;5057372;28;20033;-39
2021/12/18 11:52:58;;;;;;;5.78;3.00;;;3.10;71.50;;;;;;5057612;28;20037;-39
2021/12/18 11:55:35;;;;;;;4.40;2.08;;;3.10;71.70;;;;;;5057037;28;20388;-43
2021/12/18 11:58:12;;;;;;;7.32;3.63;;;3.10;71.60;;;;;;5057165;28;20040;-44
2021/12/18 12:00:51;;;;;;;2.83;1.60;;;3.10;71.60;;;;;;5057410;28;20040;-43
2021/12/18 12:03:38;;;;;;;1.63;1.17;;;3.10;71.00;;;;;;5057284;28;20025;-44
2021/12/18 12:06:33;;;;;;;0.95;0.85;;;3.10;70.90;;;;;;5057460;28;20039;-39
2021/12/18 12:09:35;;;;;;;0.90;0.80;;;3.10;70.40;;;;;;5057261;28;20028;-45
2021/12/18 12:12:09;;;;;;;1.50;1.23;;;3.00;69.90;;;;;;5057276;28;20378;-39
2021/12/18 12:14:37;;;;;;;4.32;2.65;;;3.00;70.20;;;;;;5057099;28;20251;-44
2021/12/18 12:17:02;;;;;;;2.45;1.52;;;3.00;70.00;;;;;;5057089;28;20032;-43
2021/12/18 12:19:34;;;;;;;4.55;2.60;;;3.00;69.90;;;;;;5054559;28;20333;-44
2021/12/18 12:22:01;;;;;;;3.58;1.92;;;3.00;70.10;;;;;;5054433;28;20345;-40
2021/12/18 12:24:50;;;;;;;2.60;1.60;;;3.00;70.20;;;;;;5056498;28;20298;-44
2021/12/18 12:27:27;;;;;;;3.72;2.40;;;3.00;70.30;;;;;;5056490;28;20071;-40
2021/12/18 12:29:54;;;;;;;4.78;2.72;;;3.00;70.10;;;;;;5056656;28;20033;-44
2021/12/18 12:32:20;;;;;;;1.77;1.40;;;3.00;70.30;;;;;;5055486;28;20128;-40
2021/12/18 12:34:59;;;;;;;3.40;1.95;;;3.00;69.90;;;;;;5056495;28;20411;-39
2021/12/18 12:37:38;;;;;;;1.33;1.02;;;3.00;69.90;;;;;;5056947;28;20353;-40
2021/12/18 12:40:34;;;;;;;2.10;1.10;;;2.90;69.90;;;;;;5056187;28;20064;-40
2021/12/18 12:43:10;;;;;;;3.15;2.20;;;2.90;69.00;;;;;;5056296;28;20033;-47
2021/12/18 12:45:38;;;;;;;4.10;2.55;;;2.90;69.00;;;;;;5056462;28;20025;-45
2021/12/18 12:48:04;;;;;;;2.20;1.60;;;2.90;69.30;;;;;;5054902;28;20074;-44
2021/12/18 12:50:33;;;;;;;4.00;2.33;;;2.90;69.50;;;;;;5056568;28;20112;-45
2021/12/18 12:53:08;;;;;;;2.00;1.40;;;2.90;69.50;;;;;;5056509;28;20045;-47
2021/12/18 12:55:45;;;;;;;5.97;1.80;;;2.80;69.40;;;;;;5055480;28;20064;-44
2021/12/18 12:58:25;;;;;;;5.53;2.90;;;2.90;69.60;;;;;;5055950;28;20037;-44
2021/12/18 13:01:01;;;;;;;2.90;2.17;;;2.80;69.70;;;;;;5055419;28;20036;-46
2021/12/18 13:03:29;;;;;;;3.50;2.05;;;2.80;69.70;;;;;;5055950;28;20036;-44
2021/12/18 13:05:57;;;;;;;2.05;1.58;;;2.80;69.80;;;;;;5056359;28;20352;-40
2021/12/18 13:08:24;;;;;;;2.47;1.90;;;2.80;70.00;;;;;;5055604;28;20112;-44
2021/12/18 13:10:53;;;;;;;5.50;3.10;;;2.80;70.10;;;;;;5055573;28;20036;-41
2021/12/18 13:13:25;;;;;;;6.72;2.80;;;2.80;70.40;;;;;;5055834;28;20444;-39
2021/12/18 13:15:55;;;;;;;5.15;2.78;;;2.80;70.60;;;;;;5055888;28;20052;-40
2021/12/18 13:18:26;;;;;;;7.05;3.28;;;2.90;70.60;;;;;;5055835;28;20320;-40
2021/12/18 13:20:56;;;;;;;3.40;2.17;;;2.90;70.80;;;;;;5056034;28;20294;-40
2021/12/18 13:23:35;;;;;;;2.45;1.80;;;2.90;70.80;;;;;;5055682;28;20432;-44
2021/12/18 13:26:01;;;;;;;6.05;3.63;;;2.90;70.60;;;;;;5056050;28;20037;-46
2021/12/18 13:28:27;;;;;;;3.72;1.95;;;2.80;70.70;;;;;;5055422;28;20068;-39
2021/12/18 13:30:54;;;;;;;3.50;1.67;;;2.80;71.00;;;;;;5055172;28;20126;-44
2021/12/18 13:33:25;;;;;;;2.53;1.52;;;2.80;71.20;;;;;;5055238;28;20036;-45
2021/12/18 13:35:55;;;;;;;;;;;2.80;71.10;;;;;;5055828;28;20037;-46
2021/12/18 13:38:22;;;;;;;4.72;2.65;;;2.80;71.30;;;;;;5071572;28;20293;-44
2021/12/18 13:40:49;;;;;;;3.35;2.50;;;2.70;71.50;;;;;;5064493;28;20037;-39
2021/12/18 13:43:26;;;;;;;4.47;2.72;;;2.70;71.80;;;;;;5067378;28;20436;-44
2021/12/18 13:46:05;;;;;;;7.20;3.70;;;2.70;72.00;;;;;;5055150;28;20033;-43
2021/12/18 13:48:36;;;;;;;6.80;3.63;;;2.70;72.50;;;;;;5052540;28;20101;-44
2021/12/18 13:51:09;;;;;;;5.50;3.38;;;2.70;72.60;;;;;;5060828;28;20063;-45
2021/12/18 13:53:47;;;;;;;8.60;4.47;;;2.70;72.80;;;;;;5074816;28;20359;-47